sensor_id;sensor_type;location;lat;lon;timestamp;temperature;humidity
65985;HTU21D;52748;51.112;5.880;2023-07-29T00:00:57;24.65;79.42
65985;HTU21D;52748;51.112;5.880;2023-07-29T00:03:23;24.64;79.33
65985;HTU21D;52748;51.112;5.880;2023-07-29T00:05:49;24.64;79.28
65985;HTU21D;52748;51.112;5.880;2023-07-29T00:08:15;24.65;79.14
65985;HTU21D;52748;51.112;5.880;2023-07-29T00:10:40;24.65;79.18
65985;HTU21D;52748;51.112;5.880;2023-07-29T00:13:07;24.65;79.14
65985;HTU21D;52748;51.112;5.880;2023-07-29T00:15:32;24.66;79.02
65985;HTU21D;52748;51.112;5.880;2023-07-29T00:17:59;24.65;79.09
65985;HTU21D;52748;51.112;5.880;2023-07-29T00:20:24;24.64;78.99
65985;HTU21D;52748;51.112;5.880;2023-07-29T00:22:50;24.64;78.92
65985;HTU21D;52748;51.112;5.880;2023-07-29T00:25:18;24.64;78.82
65985;HTU21D;52748;51.112;5.880;2023-07-29T00:27:44;24.64;78.84
65985;HTU21D;52748;51.112;5.880;2023-07-29T00:30:10;24.64;78.72
65985;HTU21D;52748;51.112;5.880;2023-07-29T00:32:36;24.65;78.72
65985;HTU21D;52748;51.112;5.880;2023-07-29T00:35:02;24.63;78.74
65985;HTU21D;52748;51.112;5.880;2023-07-29T00:37:30;24.64;78.61
65985;HTU21D;52748;51.112;5.880;2023-07-29T00:39:56;24.64;78.50
65985;HTU21D;52748;51.112;5.880;2023-07-29T00:42:23;24.63;78.64
65985;HTU21D;52748;51.112;5.880;2023-07-29T00:44:48;24.65;78.72
65985;HTU21D;52748;51.112;5.880;2023-07-29T00:47:16;24.64;78.69
65985;HTU21D;52748;51.112;5.880;2023-07-29T00:49:44;24.64;78.74
65985;HTU21D;52748;51.112;5.880;2023-07-29T00:52:11;24.65;78.75
65985;HTU21D;52748;51.112;5.880;2023-07-29T00:54:41;24.63;78.93
65985;HTU21D;52748;51.112;5.880;2023-07-29T00:57:13;24.65;78.72
65985;HTU21D;52748;51.112;5.880;2023-07-29T00:59:41;24.63;78.71
65985;HTU21D;52748;51.112;5.880;2023-07-29T01:02:08;24.64;78.59
65985;HTU21D;52748;51.112;5.880;2023-07-29T01:04:33;24.63;78.60
65985;HTU21D;52748;51.112;5.880;2023-07-29T01:10:10;24.63;78.60
65985;HTU21D;52748;51.112;5.880;2023-07-29T01:13:06;24.63;78.35
65985;HTU21D;52748;51.112;5.880;2023-07-29T01:15:51;24.63;78.59
65985;HTU21D;52748;51.112;5.880;2023-07-29T01:18:23;24.62;78.50
65985;HTU21D;52748;51.112;5.880;2023-07-29T01:20:53;24.63;78.50
65985;HTU21D;52748;51.112;5.880;2023-07-29T01:23:24;24.62;78.58
65985;HTU21D;52748;51.112;5.880;2023-07-29T01:25:50;24.63;78.34
65985;HTU21D;52748;51.112;5.880;2023-07-29T01:28:16;24.62;78.40
65985;HTU21D;52748;51.112;5.880;2023-07-29T01:30:43;24.62;78.40
65985;HTU21D;52748;51.112;5.880;2023-07-29T01:33:26;24.63;78.29
65985;HTU21D;52748;51.112;5.880;2023-07-29T01:35:58;24.62;78.27
65985;HTU21D;52748;51.112;5.880;2023-07-29T01:38:36;24.62;77.99
65985;HTU21D;52748;51.112;5.880;2023-07-29T01:41:04;24.63;77.96
65985;HTU21D;52748;51.112;5.880;2023-07-29T01:43:32;24.63;78.01
65985;HTU21D;52748;51.112;5.880;2023-07-29T01:46:00;24.62;77.91
65985;HTU21D;52748;51.112;5.880;2023-07-29T01:48:26;24.62;77.95
65985;HTU21D;52748;51.112;5.880;2023-07-29T01:50:54;24.62;77.79
65985;HTU21D;52748;51.112;5.880;2023-07-29T01:53:20;24.62;77.92
65985;HTU21D;52748;51.112;5.880;2023-07-29T01:55:46;24.63;77.79
65985;HTU21D;52748;51.112;5.880;2023-07-29T01:58:11;24.62;77.83
65985;HTU21D;52748;51.112;5.880;2023-07-29T02:00:39;24.63;77.79
65985;HTU21D;52748;51.112;5.880;2023-07-29T02:03:05;24.63;77.98
65985;HTU21D;52748;51.112;5.880;2023-07-29T02:05:31;24.62;77.92
65985;HTU21D;52748;51.112;5.880;2023-07-29T02:07:57;24.62;77.76
65985;HTU21D;52748;51.112;5.880;2023-07-29T02:10:23;24.62;77.64
65985;HTU21D;52748;51.112;5.880;2023-07-29T02:12:48;24.62;77.60
65985;HTU21D;52748;51.112;5.880;2023-07-29T02:15:14;24.63;77.53
65985;HTU21D;52748;51.112;5.880;2023-07-29T02:17:43;24.62;77.46
65985;HTU21D;52748;51.112;5.880;2023-07-29T02:20:10;24.62;77.89
65985;HTU21D;52748;51.112;5.880;2023-07-29T02:22:36;24.61;78.12
65985;HTU21D;52748;51.112;5.880;2023-07-29T02:25:02;24.61;78.08
65985;HTU21D;52748;51.112;5.880;2023-07-29T02:27:28;24.62;77.71
65985;HTU21D;52748;51.112;5.880;2023-07-29T02:29:54;24.61;77.38
65985;HTU21D;52748;51.112;5.880;2023-07-29T02:32:21;24.61;77.89
65985;HTU21D;52748;51.112;5.880;2023-07-29T02:34:47;24.62;78.01
65985;HTU21D;52748;51.112;5.880;2023-07-29T02:37:12;24.63;77.77
65985;HTU21D;52748;51.112;5.880;2023-07-29T02:39:38;24.61;77.63
65985;HTU21D;52748;51.112;5.880;2023-07-29T02:42:04;24.60;77.74
65985;HTU21D;52748;51.112;5.880;2023-07-29T02:44:30;24.61;77.67
65985;HTU21D;52748;51.112;5.880;2023-07-29T02:46:56;24.60;77.61
65985;HTU21D;52748;51.112;5.880;2023-07-29T02:49:22;24.61;77.52
65985;HTU21D;52748;51.112;5.880;2023-07-29T02:51:49;24.61;77.44
65985;HTU21D;52748;51.112;5.880;2023-07-29T02:54:15;24.61;77.34
65985;HTU21D;52748;51.112;5.880;2023-07-29T02:56:41;24.62;77.14
65985;HTU21D;52748;51.112;5.880;2023-07-29T02:59:07;24.62;76.98
65985;HTU21D;52748;51.112;5.880;2023-07-29T03:01:33;24.61;76.90
65985;HTU21D;52748;51.112;5.880;2023-07-29T03:03:58;24.61;77.05
65985;HTU21D;52748;51.112;5.880;2023-07-29T03:06:24;24.61;77.21
65985;HTU21D;52748;51.112;5.880;2023-07-29T03:08:50;24.61;77.08
65985;HTU21D;52748;51.112;5.880;2023-07-29T03:11:16;24.60;77.10
65985;HTU21D;52748;51.112;5.880;2023-07-29T03:13:43;24.61;76.90
65985;HTU21D;52748;51.112;5.880;2023-07-29T03:16:12;24.61;76.66
65985;HTU21D;52748;51.112;5.880;2023-07-29T03:18:40;24.62;76.61
65985;HTU21D;52748;51.112;5.880;2023-07-29T03:21:06;24.61;76.78
65985;HTU21D;52748;51.112;5.880;2023-07-29T03:23:34;24.61;76.62
65985;HTU21D;52748;51.112;5.880;2023-07-29T03:26:02;24.61;76.46
65985;HTU21D;52748;51.112;5.880;2023-07-29T03:28:31;24.60;76.42
65985;HTU21D;52748;51.112;5.880;2023-07-29T03:30:58;24.62;76.56
65985;HTU21D;52748;51.112;5.880;2023-07-29T03:33:25;24.62;76.42
65985;HTU21D;52748;51.112;5.880;2023-07-29T03:35:52;24.59;76.54
65985;HTU21D;52748;51.112;5.880;2023-07-29T03:38:18;24.59;76.47
65985;HTU21D;52748;51.112;5.880;2023-07-29T03:40:44;24.60;76.34
65985;HTU21D;52748;51.112;5.880;2023-07-29T03:43:10;24.59;76.36
65985;HTU21D;52748;51.112;5.880;2023-07-29T03:45:37;24.59;76.39
65985;HTU21D;52748;51.112;5.880;2023-07-29T03:48:03;24.59;76.44
65985;HTU21D;52748;51.112;5.880;2023-07-29T03:50:30;24.58;76.30
65985;HTU21D;52748;51.112;5.880;2023-07-29T03:52:56;24.58;76.34
65985;HTU21D;52748;51.112;5.880;2023-07-29T03:55:22;24.58;76.26
65985;HTU21D;52748;51.112;5.880;2023-07-29T03:57:48;24.58;76.29
65985;HTU21D;52748;51.112;5.880;2023-07-29T04:00:14;24.59;76.44
65985;HTU21D;52748;51.112;5.880;2023-07-29T04:02:46;24.57;76.55
65985;HTU21D;52748;51.112;5.880;2023-07-29T04:05:12;24.58;76.51
65985;HTU21D;52748;51.112;5.880;2023-07-29T04:07:38;24.57;76.44
65985;HTU21D;52748;51.112;5.880;2023-07-29T04:10:04;24.57;76.38
65985;HTU21D;52748;51.112;5.880;2023-07-29T04:12:30;24.58;76.31
65985;HTU21D;52748;51.112;5.880;2023-07-29T04:14:56;24.57;76.16
65985;HTU21D;52748;51.112;5.880;2023-07-29T04:17:22;24.58;76.13
65985;HTU21D;52748;51.112;5.880;2023-07-29T04:19:48;24.57;76.07
65985;HTU21D;52748;51.112;5.880;2023-07-29T04:22:15;24.56;76.05
65985;HTU21D;52748;51.112;5.880;2023-07-29T04:24:41;24.55;76.05
65985;HTU21D;52748;51.112;5.880;2023-07-29T04:27:07;24.55;76.14
65985;HTU21D;52748;51.112;5.880;2023-07-29T04:29:32;24.56;76.04
65985;HTU21D;52748;51.112;5.880;2023-07-29T04:31:58;24.55;75.95
65985;HTU21D;52748;51.112;5.880;2023-07-29T04:34:24;24.55;75.95
65985;HTU21D;52748;51.112;5.880;2023-07-29T04:36:50;24.56;76.04
65985;HTU21D;52748;51.112;5.880;2023-07-29T04:39:17;24.55;76.05
65985;HTU21D;52748;51.112;5.880;2023-07-29T04:41:43;24.57;76.02
65985;HTU21D;52748;51.112;5.880;2023-07-29T04:44:09;24.57;75.81
65985;HTU21D;52748;51.112;5.880;2023-07-29T04:46:36;24.56;75.74
65985;HTU21D;52748;51.112;5.880;2023-07-29T04:49:02;24.56;75.79
65985;HTU21D;52748;51.112;5.880;2023-07-29T04:51:28;24.55;75.62
65985;HTU21D;52748;51.112;5.880;2023-07-29T04:53:54;24.55;75.63
65985;HTU21D;52748;51.112;5.880;2023-07-29T04:56:20;24.55;75.67
65985;HTU21D;52748;51.112;5.880;2023-07-29T04:58:46;24.55;75.53
65985;HTU21D;52748;51.112;5.880;2023-07-29T05:01:11;24.53;75.47
65985;HTU21D;52748;51.112;5.880;2023-07-29T05:03:37;24.54;75.34
65985;HTU21D;52748;51.112;5.880;2023-07-29T05:06:05;24.53;75.41
65985;HTU21D;52748;51.112;5.880;2023-07-29T05:08:31;24.54;75.43
65985;HTU21D;52748;51.112;5.880;2023-07-29T05:10:57;24.53;75.31
65985;HTU21D;52748;51.112;5.880;2023-07-29T05:13:23;24.53;75.32
65985;HTU21D;52748;51.112;5.880;2023-07-29T05:15:49;24.54;75.26
65985;HTU21D;52748;51.112;5.880;2023-07-29T05:18:16;24.54;75.13
65985;HTU21D;52748;51.112;5.880;2023-07-29T05:20:42;24.54;75.18
65985;HTU21D;52748;51.112;5.880;2023-07-29T05:23:08;24.54;75.02
65985;HTU21D;52748;51.112;5.880;2023-07-29T05:25:34;24.53;74.99
65985;HTU21D;52748;51.112;5.880;2023-07-29T05:28:03;24.51;75.10
65985;HTU21D;52748;51.112;5.880;2023-07-29T05:30:30;24.53;75.18
65985;HTU21D;52748;51.112;5.880;2023-07-29T05:32:57;24.54;75.21
65985;HTU21D;52748;51.112;5.880;2023-07-29T05:35:24;24.53;75.22
65985;HTU21D;52748;51.112;5.880;2023-07-29T05:37:50;24.53;75.27
65985;HTU21D;52748;51.112;5.880;2023-07-29T05:40:16;24.53;75.27
65985;HTU21D;52748;51.112;5.880;2023-07-29T05:42:42;24.54;75.03
65985;HTU21D;52748;51.112;5.880;2023-07-29T05:45:09;24.53;74.99
65985;HTU21D;52748;51.112;5.880;2023-07-29T05:47:36;24.51;75.10
65985;HTU21D;52748;51.112;5.880;2023-07-29T05:50:03;24.50;75.05
65985;HTU21D;52748;51.112;5.880;2023-07-29T05:52:31;24.54;75.02
65985;HTU21D;52748;51.112;5.880;2023-07-29T05:54:57;24.53;74.95
65985;HTU21D;52748;51.112;5.880;2023-07-29T05:57:23;24.53;74.81
65985;HTU21D;52748;51.112;5.880;2023-07-29T05:59:49;24.51;74.76
65985;HTU21D;52748;51.112;5.880;2023-07-29T06:02:15;24.51;74.61
65985;HTU21D;52748;51.112;5.880;2023-07-29T06:04:41;24.53;74.57
65985;HTU21D;52748;51.112;5.880;2023-07-29T06:07:07;24.51;74.60
65985;HTU21D;52748;51.112;5.880;2023-07-29T06:09:34;24.53;74.41
65985;HTU21D;52748;51.112;5.880;2023-07-29T06:12:00;24.53;74.27
65985;HTU21D;52748;51.112;5.880;2023-07-29T06:14:26;24.51;74.12
65985;HTU21D;52748;51.112;5.880;2023-07-29T06:16:52;24.54;73.96
65985;HTU21D;52748;51.112;5.880;2023-07-29T06:19:20;24.53;73.96
65985;HTU21D;52748;51.112;5.880;2023-07-29T06:21:46;24.53;74.12
65985;HTU21D;52748;51.112;5.880;2023-07-29T06:24:12;24.51;74.03
65985;HTU21D;52748;51.112;5.880;2023-07-29T06:26:38;24.53;73.95
65985;HTU21D;52748;51.112;5.880;2023-07-29T06:29:04;24.53;73.95
65985;HTU21D;52748;51.112;5.880;2023-07-29T06:31:30;24.53;74.01
65985;HTU21D;52748;51.112;5.880;2023-07-29T06:33:58;24.53;74.10
65985;HTU21D;52748;51.112;5.880;2023-07-29T06:36:24;24.51;74.10
65985;HTU21D;52748;51.112;5.880;2023-07-29T06:38:50;24.53;74.16
65985;HTU21D;52748;51.112;5.880;2023-07-29T06:41:15;24.54;73.99
65985;HTU21D;52748;51.112;5.880;2023-07-29T06:43:42;24.55;73.90
65985;HTU21D;52748;51.112;5.880;2023-07-29T06:46:08;24.53;73.86
65985;HTU21D;52748;51.112;5.880;2023-07-29T06:48:33;24.53;73.77
65985;HTU21D;52748;51.112;5.880;2023-07-29T06:50:59;24.53;73.77
65985;HTU21D;52748;51.112;5.880;2023-07-29T06:53:27;24.54;74.18
65985;HTU21D;52748;51.112;5.880;2023-07-29T06:55:52;24.48;75.38
65985;HTU21D;52748;51.112;5.880;2023-07-29T06:58:19;24.46;76.28
65985;HTU21D;52748;51.112;5.880;2023-07-29T07:00:45;24.42;76.61
65985;HTU21D;52748;51.112;5.880;2023-07-29T07:03:10;24.42;77.67
65985;HTU21D;52748;51.112;5.880;2023-07-29T07:05:36;24.42;78.34
65985;HTU21D;52748;51.112;5.880;2023-07-29T07:08:02;24.43;77.90
65985;HTU21D;52748;51.112;5.880;2023-07-29T07:10:28;24.44;76.45
65985;HTU21D;52748;51.112;5.880;2023-07-29T07:12:55;24.45;76.12
65985;HTU21D;52748;51.112;5.880;2023-07-29T07:15:21;24.49;74.99
65985;HTU21D;52748;51.112;5.880;2023-07-29T07:17:47;24.51;74.25
65985;HTU21D;52748;51.112;5.880;2023-07-29T07:20:12;24.54;74.15
65985;HTU21D;52748;51.112;5.880;2023-07-29T07:22:38;24.56;74.05
65985;HTU21D;52748;51.112;5.880;2023-07-29T07:25:05;24.58;73.92
65985;HTU21D;52748;51.112;5.880;2023-07-29T07:27:31;24.60;73.86
65985;HTU21D;52748;51.112;5.880;2023-07-29T07:29:56;24.62;73.95
65985;HTU21D;52748;51.112;5.880;2023-07-29T07:32:22;24.65;73.93
65985;HTU21D;52748;51.112;5.880;2023-07-29T07:34:48;24.66;73.99
65985;HTU21D;52748;51.112;5.880;2023-07-29T07:37:14;24.68;74.18
65985;HTU21D;52748;51.112;5.880;2023-07-29T07:39:40;24.70;74.02
65985;HTU21D;52748;51.112;5.880;2023-07-29T07:42:06;24.72;74.14
65985;HTU21D;52748;51.112;5.880;2023-07-29T07:44:31;24.72;74.00
65985;HTU21D;52748;51.112;5.880;2023-07-29T07:46:57;24.74;73.88
65985;HTU21D;52748;51.112;5.880;2023-07-29T07:49:23;24.75;73.90
65985;HTU21D;52748;51.112;5.880;2023-07-29T07:51:49;24.78;73.84
65985;HTU21D;52748;51.112;5.880;2023-07-29T07:54:15;24.78;74.10
65985;HTU21D;52748;51.112;5.880;2023-07-29T07:56:42;24.80;73.78
65985;HTU21D;52748;51.112;5.880;2023-07-29T07:59:08;24.78;73.64
65985;HTU21D;52748;51.112;5.880;2023-07-29T08:01:35;24.80;73.37
65985;HTU21D;52748;51.112;5.880;2023-07-29T08:04:01;24.83;73.22
65985;HTU21D;52748;51.112;5.880;2023-07-29T08:06:27;24.85;72.93
65985;HTU21D;52748;51.112;5.880;2023-07-29T08:08:53;24.85;72.67
65985;HTU21D;52748;51.112;5.880;2023-07-29T08:11:19;24.88;72.68
65985;HTU21D;52748;51.112;5.880;2023-07-29T08:13:44;24.86;72.67
65985;HTU21D;52748;51.112;5.880;2023-07-29T08:16:10;24.90;72.35
65985;HTU21D;52748;51.112;5.880;2023-07-29T08:18:36;24.88;72.03
65985;HTU21D;52748;51.112;5.880;2023-07-29T08:21:02;24.80;71.82
65985;HTU21D;52748;51.112;5.880;2023-07-29T08:23:30;24.76;72.46
65985;HTU21D;52748;51.112;5.880;2023-07-29T08:25:58;24.77;72.48
65985;HTU21D;52748;51.112;5.880;2023-07-29T08:28:38;24.78;72.53
65985;HTU21D;52748;51.112;5.880;2023-07-29T08:31:05;24.82;72.22
65985;HTU21D;52748;51.112;5.880;2023-07-29T08:33:32;24.83;72.13
65985;HTU21D;52748;51.112;5.880;2023-07-29T08:35:59;24.85;72.14
65985;HTU21D;52748;51.112;5.880;2023-07-29T08:38:26;24.87;71.81
65985;HTU21D;52748;51.112;5.880;2023-07-29T08:46:26;24.87;70.65
65985;HTU21D;52748;51.112;5.880;2023-07-29T08:48:52;24.85;70.46
65985;HTU21D;52748;51.112;5.880;2023-07-29T08:51:19;24.83;70.96
65985;HTU21D;52748;51.112;5.880;2023-07-29T08:53:46;24.83;71.20
65985;HTU21D;52748;51.112;5.880;2023-07-29T08:56:12;24.83;71.16
65985;HTU21D;52748;51.112;5.880;2023-07-29T08:58:39;24.80;71.49
65985;HTU21D;52748;51.112;5.880;2023-07-29T09:01:06;24.78;71.48
65985;HTU21D;52748;51.112;5.880;2023-07-29T09:03:31;24.78;71.55
65985;HTU21D;52748;51.112;5.880;2023-07-29T09:05:58;24.74;71.37
65985;HTU21D;52748;51.112;5.880;2023-07-29T09:08:28;24.70;70.97
65985;HTU21D;52748;51.112;5.880;2023-07-29T09:10:55;24.61;70.77
65985;HTU21D;52748;51.112;5.880;2023-07-29T09:13:21;24.54;70.95
65985;HTU21D;52748;51.112;5.880;2023-07-29T09:15:47;24.53;71.45
65985;HTU21D;52748;51.112;5.880;2023-07-29T09:18:19;24.56;71.29
65985;HTU21D;52748;51.112;5.880;2023-07-29T09:20:50;24.60;71.40
65985;HTU21D;52748;51.112;5.880;2023-07-29T09:23:16;24.62;70.77
65985;HTU21D;52748;51.112;5.880;2023-07-29T09:25:42;24.66;70.28
65985;HTU21D;52748;51.112;5.880;2023-07-29T09:28:14;24.71;70.15
65985;HTU21D;52748;51.112;5.880;2023-07-29T09:30:42;24.73;70.37
65985;HTU21D;52748;51.112;5.880;2023-07-29T09:33:09;24.77;70.09
65985;HTU21D;52748;51.112;5.880;2023-07-29T09:35:37;24.78;69.93
65985;HTU21D;52748;51.112;5.880;2023-07-29T09:38:05;24.80;69.71
65985;HTU21D;52748;51.112;5.880;2023-07-29T09:40:36;24.83;69.80
65985;HTU21D;52748;51.112;5.880;2023-07-29T09:43:04;24.80;69.86
65985;HTU21D;52748;51.112;5.880;2023-07-29T09:45:30;24.84;70.02
65985;HTU21D;52748;51.112;5.880;2023-07-29T09:47:58;24.86;69.92
65985;HTU21D;52748;51.112;5.880;2023-07-29T09:50:25;24.87;69.75
65985;HTU21D;52748;51.112;5.880;2023-07-29T09:52:53;24.88;69.58
65985;HTU21D;52748;51.112;5.880;2023-07-29T09:55:23;24.87;69.80
65985;HTU21D;52748;51.112;5.880;2023-07-29T09:57:56;24.87;70.00
65985;HTU21D;52748;51.112;5.880;2023-07-29T10:00:24;24.88;69.80
65985;HTU21D;52748;51.112;5.880;2023-07-29T10:02:50;24.90;69.87
65985;HTU21D;52748;51.112;5.880;2023-07-29T10:05:17;24.90;69.68
65985;HTU21D;52748;51.112;5.880;2023-07-29T10:07:44;24.91;69.34
65985;HTU21D;52748;51.112;5.880;2023-07-29T10:10:12;24.92;69.46
65985;HTU21D;52748;51.112;5.880;2023-07-29T10:12:39;24.93;69.41
65985;HTU21D;52748;51.112;5.880;2023-07-29T10:15:08;24.97;69.20
65985;HTU21D;52748;51.112;5.880;2023-07-29T10:17:37;24.95;69.52
65985;HTU21D;52748;51.112;5.880;2023-07-29T10:20:05;24.95;69.36
65985;HTU21D;52748;51.112;5.880;2023-07-29T10:22:41;24.95;69.20
65985;HTU21D;52748;51.112;5.880;2023-07-29T10:25:28;24.95;69.18
65985;HTU21D;52748;51.112;5.880;2023-07-29T10:27:57;24.95;68.83
65985;HTU21D;52748;51.112;5.880;2023-07-29T10:30:24;24.95;68.84
65985;HTU21D;52748;51.112;5.880;2023-07-29T10:32:52;24.95;68.87
65985;HTU21D;52748;51.112;5.880;2023-07-29T10:35:19;24.94;68.65
65985;HTU21D;52748;51.112;5.880;2023-07-29T10:37:46;24.93;68.55
65985;HTU21D;52748;51.112;5.880;2023-07-29T10:40:12;24.93;68.71
65985;HTU21D;52748;51.112;5.880;2023-07-29T10:42:38;24.93;68.80
65985;HTU21D;52748;51.112;5.880;2023-07-29T10:45:24;24.92;68.88
65985;HTU21D;52748;51.112;5.880;2023-07-29T10:47:50;24.92;68.87
65985;HTU21D;52748;51.112;5.880;2023-07-29T10:50:18;24.91;68.75
65985;HTU21D;52748;51.112;5.880;2023-07-29T10:52:50;24.91;68.66
65985;HTU21D;52748;51.112;5.880;2023-07-29T10:58:06;24.92;68.65
65985;HTU21D;52748;51.112;5.880;2023-07-29T11:00:32;24.93;68.74
65985;HTU21D;52748;51.112;5.880;2023-07-29T11:03:03;24.93;68.76
65985;HTU21D;52748;51.112;5.880;2023-07-29T11:05:51;24.93;68.69
65985;HTU21D;52748;51.112;5.880;2023-07-29T11:08:19;24.93;68.87
65985;HTU21D;52748;51.112;5.880;2023-07-29T11:10:58;24.92;68.91
65985;HTU21D;52748;51.112;5.880;2023-07-29T11:13:26;24.90;69.15
65985;HTU21D;52748;51.112;5.880;2023-07-29T11:15:54;24.90;69.46
65985;HTU21D;52748;51.112;5.880;2023-07-29T11:18:21;24.91;69.40
65985;HTU21D;52748;51.112;5.880;2023-07-29T11:20:47;24.92;69.23
65985;HTU21D;52748;51.112;5.880;2023-07-29T11:23:13;24.93;69.16
65985;HTU21D;52748;51.112;5.880;2023-07-29T11:25:39;24.93;69.21
65985;HTU21D;52748;51.112;5.880;2023-07-29T11:28:05;24.94;69.07
65985;HTU21D;52748;51.112;5.880;2023-07-29T11:30:31;24.95;68.97
65985;HTU21D;52748;51.112;5.880;2023-07-29T11:32:58;24.97;68.97
65985;HTU21D;52748;51.112;5.880;2023-07-29T11:35:24;24.97;68.94
65985;HTU21D;52748;51.112;5.880;2023-07-29T11:37:54;24.97;68.87
65985;HTU21D;52748;51.112;5.880;2023-07-29T11:40:21;24.98;68.90
65985;HTU21D;52748;51.112;5.880;2023-07-29T11:42:49;24.98;68.96
65985;HTU21D;52748;51.112;5.880;2023-07-29T11:45:19;24.98;69.00
65985;HTU21D;52748;51.112;5.880;2023-07-29T11:47:46;24.99;69.18
65985;HTU21D;52748;51.112;5.880;2023-07-29T11:50:13;24.95;69.34
65985;HTU21D;52748;51.112;5.880;2023-07-29T11:52:44;24.97;69.96
65985;HTU21D;52748;51.112;5.880;2023-07-29T11:55:12;24.98;69.97
65985;HTU21D;52748;51.112;5.880;2023-07-29T11:57:39;24.98;70.35
65985;HTU21D;52748;51.112;5.880;2023-07-29T12:00:07;24.98;70.79
65985;HTU21D;52748;51.112;5.880;2023-07-29T12:02:38;25.00;70.49
65985;HTU21D;52748;51.112;5.880;2023-07-29T12:05:06;25.00;70.26
65985;HTU21D;52748;51.112;5.880;2023-07-29T12:07:32;25.02;71.02
65985;HTU21D;52748;51.112;5.880;2023-07-29T12:10:02;25.01;70.36
65985;HTU21D;52748;51.112;5.880;2023-07-29T12:12:29;25.03;70.69
65985;HTU21D;52748;51.112;5.880;2023-07-29T12:14:55;25.05;71.14
65985;HTU21D;52748;51.112;5.880;2023-07-29T12:17:21;25.04;71.84
65985;HTU21D;52748;51.112;5.880;2023-07-29T12:19:47;25.05;72.12
65985;HTU21D;52748;51.112;5.880;2023-07-29T12:22:18;25.05;72.15
65985;HTU21D;52748;51.112;5.880;2023-07-29T12:24:44;25.05;72.10
65985;HTU21D;52748;51.112;5.880;2023-07-29T12:27:14;25.05;72.22
65985;HTU21D;52748;51.112;5.880;2023-07-29T12:29:44;25.04;72.81
65985;HTU21D;52748;51.112;5.880;2023-07-29T12:32:12;25.02;72.67
65985;HTU21D;52748;51.112;5.880;2023-07-29T12:34:38;25.02;72.02
65985;HTU21D;52748;51.112;5.880;2023-07-29T12:37:06;25.04;72.48
65985;HTU21D;52748;51.112;5.880;2023-07-29T12:39:34;25.03;72.50
65985;HTU21D;52748;51.112;5.880;2023-07-29T12:42:02;25.03;72.00
65985;HTU21D;52748;51.112;5.880;2023-07-29T12:44:36;25.04;71.61
65985;HTU21D;52748;51.112;5.880;2023-07-29T12:47:04;25.05;71.52
65985;HTU21D;52748;51.112;5.880;2023-07-29T12:49:31;25.05;71.59
65985;HTU21D;52748;51.112;5.880;2023-07-29T12:52:00;25.05;71.36
65985;HTU21D;52748;51.112;5.880;2023-07-29T12:54:26;25.06;71.33
65985;HTU21D;52748;51.112;5.880;2023-07-29T12:56:52;25.05;71.37
65985;HTU21D;52748;51.112;5.880;2023-07-29T12:59:18;25.05;71.60
65985;HTU21D;52748;51.112;5.880;2023-07-29T13:01:44;25.04;71.72
65985;HTU21D;52748;51.112;5.880;2023-07-29T13:04:10;25.04;71.53
65985;HTU21D;52748;51.112;5.880;2023-07-29T13:06:36;25.04;71.62
65985;HTU21D;52748;51.112;5.880;2023-07-29T13:09:02;25.05;71.50
65985;HTU21D;52748;51.112;5.880;2023-07-29T13:11:29;25.05;71.47
65985;HTU21D;52748;51.112;5.880;2023-07-29T13:13:54;25.04;71.31
65985;HTU21D;52748;51.112;5.880;2023-07-29T13:16:20;25.05;71.37
65985;HTU21D;52748;51.112;5.880;2023-07-29T13:18:46;25.04;71.38
65985;HTU21D;52748;51.112;5.880;2023-07-29T13:21:12;25.04;71.27
65985;HTU21D;52748;51.112;5.880;2023-07-29T13:23:37;25.04;71.02
65985;HTU21D;52748;51.112;5.880;2023-07-29T13:26:03;25.03;71.21
65985;HTU21D;52748;51.112;5.880;2023-07-29T13:28:29;25.03;70.98
65985;HTU21D;52748;51.112;5.880;2023-07-29T13:30:55;25.02;71.74
65985;HTU21D;52748;51.112;5.880;2023-07-29T13:33:21;25.02;72.27
65985;HTU21D;52748;51.112;5.880;2023-07-29T13:35:46;25.03;72.09
65985;HTU21D;52748;51.112;5.880;2023-07-29T13:38:12;25.02;72.06
65985;HTU21D;52748;51.112;5.880;2023-07-29T13:40:38;25.03;72.01
65985;HTU21D;52748;51.112;5.880;2023-07-29T13:43:04;25.03;71.96
65985;HTU21D;52748;51.112;5.880;2023-07-29T13:45:30;25.03;71.85
65985;HTU21D;52748;51.112;5.880;2023-07-29T13:47:56;25.04;72.00
65985;HTU21D;52748;51.112;5.880;2023-07-29T13:50:22;25.03;72.09
65985;HTU21D;52748;51.112;5.880;2023-07-29T13:52:48;25.03;72.03
65985;HTU21D;52748;51.112;5.880;2023-07-29T13:55:14;25.03;71.95
65985;HTU21D;52748;51.112;5.880;2023-07-29T13:57:39;25.04;72.21
65985;HTU21D;52748;51.112;5.880;2023-07-29T14:00:08;25.03;71.74
65985;HTU21D;52748;51.112;5.880;2023-07-29T14:02:41;25.04;71.47
65985;HTU21D;52748;51.112;5.880;2023-07-29T14:05:08;25.04;71.29
65985;HTU21D;52748;51.112;5.880;2023-07-29T14:07:34;25.04;71.13
65985;HTU21D;52748;51.112;5.880;2023-07-29T14:09:59;25.02;71.16
65985;HTU21D;52748;51.112;5.880;2023-07-29T14:12:25;25.04;71.33
65985;HTU21D;52748;51.112;5.880;2023-07-29T14:14:51;25.05;71.24
65985;HTU21D;52748;51.112;5.880;2023-07-29T14:17:17;25.04;71.44
65985;HTU21D;52748;51.112;5.880;2023-07-29T14:19:43;25.03;71.23
65985;HTU21D;52748;51.112;5.880;2023-07-29T14:22:08;25.05;71.56
65985;HTU21D;52748;51.112;5.880;2023-07-29T14:24:34;25.04;71.77
65985;HTU21D;52748;51.112;5.880;2023-07-29T14:27:00;25.04;71.61
65985;HTU21D;52748;51.112;5.880;2023-07-29T14:29:26;25.03;71.48
65985;HTU21D;52748;51.112;5.880;2023-07-29T14:31:52;25.03;71.35
65985;HTU21D;52748;51.112;5.880;2023-07-29T14:34:18;25.05;71.56
65985;HTU21D;52748;51.112;5.880;2023-07-29T14:36:43;25.04;71.59
65985;HTU21D;52748;51.112;5.880;2023-07-29T14:39:12;25.05;71.58
65985;HTU21D;52748;51.112;5.880;2023-07-29T14:41:38;25.05;71.67
65985;HTU21D;52748;51.112;5.880;2023-07-29T14:44:04;25.04;71.85
65985;HTU21D;52748;51.112;5.880;2023-07-29T14:46:30;25.05;71.61
65985;HTU21D;52748;51.112;5.880;2023-07-29T14:48:56;25.05;71.56
65985;HTU21D;52748;51.112;5.880;2023-07-29T14:51:21;25.04;71.71
65985;HTU21D;52748;51.112;5.880;2023-07-29T14:53:48;25.03;71.85
65985;HTU21D;52748;51.112;5.880;2023-07-29T14:56:14;25.04;71.70
65985;HTU21D;52748;51.112;5.880;2023-07-29T14:58:43;25.05;71.82
65985;HTU21D;52748;51.112;5.880;2023-07-29T15:01:09;25.06;72.15
65985;HTU21D;52748;51.112;5.880;2023-07-29T15:03:35;25.06;71.93
65985;HTU21D;52748;51.112;5.880;2023-07-29T15:06:01;25.05;72.01
65985;HTU21D;52748;51.112;5.880;2023-07-29T15:08:28;25.05;71.94
65985;HTU21D;52748;51.112;5.880;2023-07-29T15:10:54;25.05;71.75
65985;HTU21D;52748;51.112;5.880;2023-07-29T15:13:20;25.04;71.79
65985;HTU21D;52748;51.112;5.880;2023-07-29T15:15:46;25.07;71.64
65985;HTU21D;52748;51.112;5.880;2023-07-29T15:18:13;25.05;71.93
65985;HTU21D;52748;51.112;5.880;2023-07-29T15:20:39;25.06;72.31
65985;HTU21D;52748;51.112;5.880;2023-07-29T15:23:05;25.06;72.22
65985;HTU21D;52748;51.112;5.880;2023-07-29T15:25:31;25.07;72.04